Time;durP1;ratioP1;P1;durP2;ratioP2;P2;SDS_P1;SDS_P2;PMS_P1;PMS_P2;Temp;Humidity;BMP_temperature;BMP_pressure;BME280_temperature;BME280_humidity;BME280_pressure;Samples;Min_cycle;Max_cycle;Signal;HPM_P1;HPM_P2
2023/08/01 00:00:13;;;;;;;3.40;2.50;;;16.10;99.90;;;;;;2086422;28;20429;-67
2023/08/01 00:01:14;;;;;;;3.13;2.13;;;16.10;99.90;;;;;;2089084;28;20184;-68
2023/08/01 00:02:15;;;;;;;3.80;2.57;;;16.10;99.90;;;;;;2089712;28;20286;-68
2023/08/01 00:03:17;;;;;;;2.83;2.33;;;16.20;99.90;;;;;;2087700;28;20496;-68
2023/08/01 00:04:17;;;;;;;3.97;2.40;;;16.20;99.90;;;;;;2091080;28;20280;-68
2023/08/01 00:05:18;;;;;;;3.60;2.40;;;16.20;99.90;;;;;;2081257;28;20830;-68
2023/08/01 00:06:19;;;;;;;3.40;2.60;;;16.10;99.90;;;;;;2069952;28;20370;-67
2023/08/01 00:07:20;;;;;;;3.60;2.40;;;16.10;99.90;;;;;;2086048;28;20660;-68
2023/08/01 00:08:22;;;;;;;4.87;2.27;;;16.10;99.90;;;;;;2092237;28;20461;-68
2023/08/01 00:09:23;;;;;;;2.53;2.33;;;16.10;99.90;;;;;;2092621;28;20480;-67
2023/08/01 00:10:24;;;;;;;3.67;2.57;;;16.20;99.90;;;;;;2090944;28;21144;-68
2023/08/01 00:11:24;;;;;;;7.30;3.00;;;16.20;99.90;;;;;;2086507;28;20744;-68
2023/08/01 00:12:26;;;;;;;3.20;2.57;;;16.20;99.90;;;;;;2091267;28;20698;-68
2023/08/01 00:13:27;;;;;;;3.83;2.40;;;16.30;99.90;;;;;;2094592;28;20650;-68
2023/08/01 00:14:28;;;;;;;3.97;2.23;;;16.20;99.90;;;;;;2088053;28;20469;-69
2023/08/01 00:15:29;;;;;;;3.87;2.70;;;16.30;99.90;;;;;;2078621;28;20719;-68
2023/08/01 00:16:29;;;;;;;3.90;2.40;;;16.30;99.90;;;;;;2078287;28;20228;-67
2023/08/01 00:17:30;;;;;;;6.70;2.93;;;16.30;99.90;;;;;;2075165;28;20335;-68
2023/08/01 00:18:31;;;;;;;3.63;2.70;;;16.30;99.90;;;;;;2080852;28;20288;-67
2023/08/01 00:19:31;;;;;;;3.03;2.30;;;16.30;99.90;;;;;;2078384;28;20263;-67
2023/08/01 00:20:32;;;;;;;3.80;2.67;;;16.40;99.90;;;;;;2078032;28;20229;-68
2023/08/01 00:21:33;;;;;;;3.73;2.30;;;16.40;99.90;;;;;;2069302;28;20225;-68
2023/08/01 00:22:34;;;;;;;7.67;2.97;;;16.40;99.90;;;;;;2069814;28;20229;-69
2023/08/01 00:23:34;;;;;;;3.93;2.27;;;16.40;99.90;;;;;;2086318;28;20289;-68
2023/08/01 00:24:36;;;;;;;5.90;3.00;;;16.40;99.90;;;;;;2086740;28;20314;-68
2023/08/01 00:25:36;;;;;;;4.93;2.30;;;16.40;99.90;;;;;;2086508;28;20243;-68
2023/08/01 00:26:37;;;;;;;4.43;2.57;;;16.50;99.90;;;;;;2086717;28;20508;-67
2023/08/01 00:27:38;;;;;;;3.97;2.77;;;16.50;99.90;;;;;;2086373;28;20258;-67
2023/08/01 00:28:38;;;;;;;2.40;2.20;;;16.50;99.90;;;;;;2070155;28;20232;-67
2023/08/01 00:29:39;;;;;;;3.57;2.57;;;16.50;99.90;;;;;;2076204;28;20286;-68
2023/08/01 00:30:40;;;;;;;4.57;2.80;;;16.60;99.90;;;;;;2085753;28;20260;-68
2023/08/01 00:31:41;;;;;;;4.67;2.80;;;16.50;99.90;;;;;;2093377;28;20361;-68
2023/08/01 00:32:42;;;;;;;4.57;2.77;;;16.60;99.90;;;;;;2086920;28;20263;-68
2023/08/01 00:33:43;;;;;;;4.50;2.47;;;16.60;99.90;;;;;;2086331;28;20485;-67
2023/08/01 00:34:44;;;;;;;3.93;2.20;;;16.60;99.90;;;;;;2082919;28;20564;-68
2023/08/01 00:35:44;;;;;;;3.93;2.53;;;16.60;99.90;;;;;;2085569;28;20227;-67
2023/08/01 00:36:45;;;;;;;3.43;2.40;;;16.60;99.90;;;;;;2085266;28;20254;-67
2023/08/01 00:37:46;;;;;;;5.13;2.50;;;16.60;99.90;;;;;;2092015;28;20223;-67
2023/08/01 00:38:47;;;;;;;3.50;2.67;;;16.70;99.90;;;;;;2080486;28;20235;-67
2023/08/01 00:39:47;;;;;;;3.63;2.50;;;16.70;99.90;;;;;;2085938;28;20694;-67
2023/08/01 00:40:50;;;;;;;4.03;2.53;;;16.60;99.90;;;;;;2093873;28;20475;-67
2023/08/01 00:41:50;;;;;;;3.23;2.40;;;16.60;99.90;;;;;;2094372;28;20227;-67
2023/08/01 00:42:55;;;;;;;4.00;2.37;;;16.60;99.90;;;;;;2092890;28;20476;-67
2023/08/01 00:43:56;;;;;;;3.50;2.40;;;16.60;99.90;;;;;;2078613;28;20309;-67
2023/08/01 00:44:56;;;;;;;5.30;2.60;;;16.70;99.90;;;;;;2075486;28;20535;-67
2023/08/01 00:46:01;;;;;;;3.10;2.53;;;16.70;99.90;;;;;;2078912;28;20201;-68
2023/08/01 00:47:01;;;;;;;6.27;2.30;;;16.70;99.90;;;;;;2078695;28;20448;-67
2023/08/01 00:48:02;;;;;;;4.20;2.60;;;16.70;99.90;;;;;;2078215;28;20454;-67
2023/08/01 00:49:03;;;;;;;5.47;3.00;;;16.70;99.90;;;;;;2078260;28;20185;-67
2023/08/01 00:50:05;;;;;;;4.70;2.67;;;16.60;99.90;;;;;;2078408;28;21245;-67
2023/08/01 00:51:08;;;;;;;3.67;2.43;;;16.60;99.90;;;;;;2078220;28;20196;-67
2023/08/01 00:52:10;;;;;;;3.90;2.17;;;16.60;99.90;;;;;;2078285;28;20425;-67
2023/08/01 00:53:12;;;;;;;3.40;2.40;;;16.70;99.90;;;;;;2078274;28;20423;-67
2023/08/01 00:54:14;;;;;;;5.47;2.40;;;16.60;99.90;;;;;;2086288;28;20421;-67
2023/08/01 00:55:16;;;;;;;3.80;2.47;;;16.60;99.90;;;;;;2090576;28;20443;-67
2023/08/01 00:56:17;;;;;;;5.30;2.83;;;16.60;99.90;;;;;;2086214;28;20426;-67
2023/08/01 00:57:18;;;;;;;2.97;2.30;;;16.50;99.90;;;;;;2069825;28;20558;-67
2023/08/01 00:58:20;;;;;;;3.03;2.47;;;16.40;99.90;;;;;;2087680;28;20880;-67
2023/08/01 00:59:20;;;;;;;3.60;2.57;;;16.40;99.90;;;;;;2094232;28;20226;-67
2023/08/01 01:00:23;;;;;;;3.97;2.57;;;16.30;99.90;;;;;;2094409;28;20461;-67
2023/08/01 01:01:23;;;;;;;4.50;2.50;;;16.30;99.90;;;;;;2091342;28;20556;-67
2023/08/01 01:02:24;;;;;;;3.80;2.93;;;16.30;99.90;;;;;;2091655;28;20896;-67
2023/08/01 01:03:25;;;;;;;2.80;2.33;;;16.30;99.90;;;;;;2088115;28;20322;-67
2023/08/01 01:04:27;;;;;;;3.73;2.37;;;16.20;99.90;;;;;;2085920;28;20785;-67
2023/08/01 01:05:35;;;;;;;3.67;2.50;;;16.10;99.90;;;;;;2090773;28;20223;-67
2023/08/01 01:07:03;;;;;;;5.17;3.10;;;16.10;99.90;;;;;;2085422;28;21090;-67
2023/08/01 01:08:05;;;;;;;3.93;2.90;;;16.00;99.90;;;;;;2091989;28;20528;-67
2023/08/01 01:09:16;;;;;;;3.70;2.57;;;16.00;99.90;;;;;;2091188;28;20413;-67
2023/08/01 01:10:19;;;;;;;4.37;2.93;;;15.90;99.90;;;;;;2079713;28;20620;-67
2023/08/01 01:11:19;;;;;;;4.33;2.50;;;15.80;99.90;;;;;;2069294;28;21068;-67
2023/08/01 01:12:21;;;;;;;4.20;2.67;;;15.80;99.90;;;;;;2075042;28;20465;-66
2023/08/01 01:13:22;;;;;;;4.83;3.23;;;15.80;99.90;;;;;;2070739;28;20221;-67
2023/08/01 01:14:22;;;;;;;4.87;3.10;;;15.80;99.90;;;;;;2056386;28;20488;-66
2023/08/01 01:15:23;;;;;;;4.73;2.83;;;15.70;99.90;;;;;;2068067;28;20321;-67
2023/08/01 01:16:24;;;;;;;5.33;2.80;;;15.60;99.90;;;;;;2082266;28;20703;-67
2023/08/01 01:17:24;;;;;;;4.60;2.90;;;15.60;99.90;;;;;;2080827;28;20229;-67
2023/08/01 01:18:25;;;;;;;5.40;3.13;;;15.50;99.90;;;;;;2079108;28;20738;-67
2023/08/01 01:19:26;;;;;;;3.90;2.80;;;15.50;99.90;;;;;;2077802;28;20216;-67
2023/08/01 01:20:36;;;;;;;3.07;2.63;;;15.50;99.90;;;;;;2070731;28;20227;-67
2023/08/01 01:21:42;;;;;;;6.20;3.33;;;15.40;99.90;;;;;;2077261;28;20457;-67
2023/08/01 01:22:43;;;;;;;3.90;2.67;;;15.40;99.90;;;;;;2079202;28;20481;-67
2023/08/01 01:23:45;;;;;;;4.27;2.80;;;15.40;99.90;;;;;;2070868;28;21110;-67
2023/08/01 01:24:47;;;;;;;3.63;2.90;;;15.40;99.90;;;;;;2071423;28;20668;-67
2023/08/01 01:25:51;;;;;;;4.40;2.70;;;15.40;99.90;;;;;;2079787;28;20473;-68
2023/08/01 01:26:53;;;;;;;5.13;2.60;;;15.40;99.90;;;;;;2077717;28;20504;-67
2023/08/01 01:27:54;;;;;;;4.10;3.10;;;15.30;99.90;;;;;;2062837;28;20506;-67
2023/08/01 01:28:56;;;;;;;5.30;3.07;;;15.30;99.90;;;;;;2063734;28;20478;-67
2023/08/01 01:29:57;;;;;;;4.00;2.97;;;15.30;99.90;;;;;;2070333;28;20554;-67
2023/08/01 01:30:59;;;;;;;6.25;3.17;;;15.30;99.90;;;;;;2074745;28;20450;-68
2023/08/01 01:32:01;;;;;;;4.33;3.17;;;15.30;99.90;;;;;;2066069;28;20684;-68
2023/08/01 01:33:04;;;;;;;5.13;3.10;;;15.30;99.90;;;;;;2062749;28;20424;-69
2023/08/01 01:34:04;;;;;;;9.53;3.40;;;15.40;99.90;;;;;;2070418;28;20961;-68
2023/08/01 01:35:06;;;;;;;6.07;3.10;;;15.40;99.90;;;;;;2079581;28;20983;-68
2023/08/01 01:36:06;;;;;;;4.87;2.90;;;15.30;99.90;;;;;;2086204;28;20192;-67
2023/08/01 01:37:07;;;;;;;4.37;2.93;;;15.40;99.90;;;;;;2078406;28;20430;-67
2023/08/01 01:38:09;;;;;;;4.60;2.77;;;15.40;99.90;;;;;;2088403;28;20181;-68
2023/08/01 01:39:10;;;;;;;3.57;2.80;;;15.40;99.90;;;;;;2093771;28;20247;-67
2023/08/01 01:40:11;;;;;;;5.23;2.87;;;15.40;99.90;;;;;;2090776;28;20466;-68
2023/08/01 01:41:12;;;;;;;5.63;3.10;;;15.40;99.90;;;;;;2086684;28;20190;-68
2023/08/01 01:42:13;;;;;;;3.20;2.50;;;15.40;99.90;;;;;;2084229;28;20418;-67
2023/08/01 01:43:13;;;;;;;3.80;2.70;;;15.40;99.90;;;;;;2077681;28;20227;-67
2023/08/01 01:44:14;;;;;;;3.57;2.63;;;15.40;99.90;;;;;;2079508;28;20189;-68
2023/08/01 01:45:16;;;;;;;4.37;2.67;;;15.40;99.90;;;;;;2078811;28;20189;-67
2023/08/01 01:46:17;;;;;;;4.10;2.77;;;15.40;99.90;;;;;;2078509;28;20241;-67
2023/08/01 01:47:18;;;;;;;5.73;3.23;;;15.40;99.90;;;;;;2078633;28;20541;-67
2023/08/01 01:48:19;;;;;;;4.43;3.50;;;15.40;99.90;;;;;;2078647;28;20919;-68
2023/08/01 01:49:19;;;;;;;3.50;2.97;;;15.40;99.90;;;;;;2090238;28;20629;-67
2023/08/01 01:50:20;;;;;;;3.47;2.80;;;15.40;99.90;;;;;;2085870;28;20643;-67
2023/08/01 01:51:26;;;;;;;3.50;2.90;;;15.40;99.90;;;;;;2077274;28;20235;-67
2023/08/01 01:52:27;;;;;;;4.53;2.87;;;15.40;99.90;;;;;;2063097;28;20265;-67
2023/08/01 01:53:27;;;;;;;4.23;2.53;;;15.40;99.90;;;;;;2077362;28;20842;-67
2023/08/01 01:54:28;;;;;;;4.37;2.93;;;15.40;99.90;;;;;;2083416;28;20224;-67
2023/08/01 01:55:29;;;;;;;5.60;2.77;;;15.40;99.90;;;;;;2072635;28;20226;-67
2023/08/01 01:56:30;;;;;;;4.33;2.70;;;15.40;99.90;;;;;;2069898;28;20233;-67
2023/08/01 01:57:30;;;;;;;4.53;2.97;;;15.50;99.90;;;;;;2071271;28;20308;-67
2023/08/01 01:58:31;;;;;;;4.03;2.50;;;15.50;99.90;;;;;;2072053;28;20704;-67
2023/08/01 01:59:32;;;;;;;3.33;2.70;;;15.50;99.90;;;;;;2068802;28;20233;-67
2023/08/01 02:00:32;;;;;;;3.53;2.70;;;15.40;99.90;;;;;;2078769;28;20256;-67
2023/08/01 02:01:33;;;;;;;4.47;3.00;;;15.50;99.90;;;;;;2079493;28;20278;-67
2023/08/01 02:02:34;;;;;;;4.10;2.60;;;15.50;99.90;;;;;;2079629;28;20217;-67
2023/08/01 02:03:35;;;;;;;4.87;3.37;;;15.50;99.90;;;;;;2078571;28;20716;-67
2023/08/01 02:04:36;;;;;;;4.93;2.83;;;15.60;99.90;;;;;;2070448;28;20467;-67
2023/08/01 02:05:37;;;;;;;3.27;2.23;;;15.60;99.90;;;;;;2062386;28;20475;-67
2023/08/01 02:06:38;;;;;;;4.83;2.37;;;15.60;99.90;;;;;;2062536;28;20812;-67
2023/08/01 02:07:39;;;;;;;6.13;3.03;;;15.60;99.90;;;;;;2076616;28;20524;-67
2023/08/01 02:08:39;;;;;;;3.57;2.33;;;15.70;99.90;;;;;;2070708;28;20264;-67
2023/08/01 02:09:40;;;;;;;2.93;2.50;;;15.80;99.90;;;;;;2078458;28;20232;-67
2023/08/01 02:10:41;;;;;;;5.37;2.77;;;15.90;99.90;;;;;;2086257;28;20228;-67
2023/08/01 02:11:41;;;;;;;3.93;2.30;;;15.90;99.90;;;;;;2070458;28;20226;-67
2023/08/01 02:12:43;;;;;;;4.13;2.50;;;15.90;99.90;;;;;;2074955;28;20240;-67
2023/08/01 02:13:44;;;;;;;3.07;2.67;;;15.90;99.90;;;;;;2090477;28;20219;-67
2023/08/01 02:14:45;;;;;;;3.47;2.33;;;16.00;99.90;;;;;;2074750;28;20505;-67
2023/08/01 02:15:46;;;;;;;3.57;2.80;;;16.10;99.90;;;;;;2077526;28;20235;-67
2023/08/01 02:16:46;;;;;;;6.33;2.80;;;16.10;99.90;;;;;;2079299;28;20287;-67
2023/08/01 02:17:47;;;;;;;2.70;2.33;;;16.10;99.90;;;;;;2078877;28;21050;-67
2023/08/01 02:18:48;;;;;;;4.63;2.70;;;16.10;99.90;;;;;;2078837;28;20328;-67
2023/08/01 02:19:48;;;;;;;4.33;2.80;;;16.10;99.90;;;;;;2062390;28;20246;-67
2023/08/01 02:20:49;;;;;;;2.73;2.10;;;16.10;99.90;;;;;;2069267;28;20222;-67
2023/08/01 02:21:50;;;;;;;4.00;2.43;;;16.10;99.90;;;;;;2084665;28;20227;-67
2023/08/01 02:22:50;;;;;;;6.37;2.67;;;16.10;99.90;;;;;;2087193;28;20235;-67
2023/08/01 02:23:51;;;;;;;4.20;2.63;;;16.10;99.90;;;;;;2079244;28;20248;-67
2023/08/01 02:24:52;;;;;;;3.27;2.20;;;16.10;99.90;;;;;;2078921;28;20596;-67
2023/08/01 02:25:53;;;;;;;6.03;3.00;;;16.20;99.90;;;;;;2079024;28;20225;-68
2023/08/01 02:26:54;;;;;;;2.97;2.17;;;16.20;99.90;;;;;;2079012;28;20473;-67
2023/08/01 02:27:55;;;;;;;4.80;3.13;;;16.30;99.90;;;;;;2070017;28;20300;-67
2023/08/01 02:28:56;;;;;;;5.20;2.33;;;16.30;99.90;;;;;;2078723;28;20722;-67
2023/08/01 02:29:56;;;;;;;4.27;2.67;;;16.20;99.90;;;;;;2083404;28;20484;-68
2023/08/01 02:30:57;;;;;;;4.33;2.50;;;16.40;99.90;;;;;;2085287;28;20710;-69
2023/08/01 02:31:58;;;;;;;3.47;2.30;;;16.40;99.90;;;;;;2070292;28;20200;-69
2023/08/01 02:32:58;;;;;;;3.80;2.33;;;16.40;99.90;;;;;;2075619;28;20239;-67
2023/08/01 02:33:59;;;;;;;5.47;2.50;;;16.40;99.90;;;;;;2084311;28;20651;-66
2023/08/01 02:35:00;;;;;;;4.57;2.40;;;16.50;99.90;;;;;;2078698;28;20203;-67
2023/08/01 02:36:00;;;;;;;3.43;2.40;;;16.40;99.90;;;;;;2079131;28;20648;-67
2023/08/01 02:37:01;;;;;;;3.43;2.20;;;16.50;99.90;;;;;;2086296;28;20188;-68
2023/08/01 02:38:03;;;;;;;3.80;2.60;;;16.50;99.90;;;;;;2084452;28;20185;-69
2023/08/01 02:39:03;;;;;;;4.03;2.70;;;16.50;99.90;;;;;;2070062;28;20217;-68
2023/08/01 02:40:08;;;;;;;5.30;2.33;;;16.50;99.90;;;;;;2065248;28;20949;-68
2023/08/01 02:41:09;;;;;;;3.30;2.50;;;16.50;99.90;;;;;;2077544;28;20223;-68
2023/08/01 02:42:10;;;;;;;5.07;2.90;;;16.50;99.90;;;;;;2086553;28;20413;-68
2023/08/01 02:43:11;;;;;;;4.63;2.70;;;16.50;99.90;;;;;;2083436;28;20467;-68
2023/08/01 02:44:12;;;;;;;3.90;2.37;;;16.60;99.90;;;;;;2082031;28;20582;-67
2023/08/01 02:45:13;;;;;;;2.30;2.10;;;16.60;99.70;;;;;;2078663;28;20925;-67
2023/08/01 02:46:14;;;;;;;6.50;2.50;;;16.50;99.90;;;;;;2073258;28;20433;-68
2023/08/01 02:47:15;;;;;;;3.47;2.50;;;16.60;99.90;;;;;;2075989;28;20499;-68
2023/08/01 02:48:17;;;;;;;3.30;2.30;;;16.50;99.90;;;;;;2081271;28;20769;-68
2023/08/01 02:49:17;;;;;;;4.53;2.27;;;16.60;99.60;;;;;;2081416;28;20501;-68
2023/08/01 02:50:18;;;;;;;4.07;2.10;;;16.60;99.80;;;;;;2070139;28;20239;-68
2023/08/01 02:51:19;;;;;;;2.80;2.33;;;16.60;98.90;;;;;;2080461;28;20315;-68
2023/08/01 02:52:20;;;;;;;3.27;2.40;;;16.50;99.00;;;;;;2088286;28;20249;-67
2023/08/01 02:53:21;;;;;;;3.27;2.33;;;16.60;98.90;;;;;;2086006;28;20469;-68
2023/08/01 02:54:21;;;;;;;3.30;2.33;;;16.60;99.40;;;;;;2086647;28;20469;-68
2023/08/01 02:55:22;;;;;;;3.63;2.30;;;16.60;98.90;;;;;;2081108;28;20311;-68
2023/08/01 02:56:23;;;;;;;4.33;2.43;;;16.60;98.50;;;;;;2077073;28;20306;-67
2023/08/01 02:57:24;;;;;;;5.60;2.30;;;16.60;98.70;;;;;;2073877;28;20241;-67
2023/08/01 02:58:25;;;;;;;5.23;2.43;;;16.60;99.10;;;;;;2073943;28;20754;-68
2023/08/01 02:59:25;;;;;;;6.80;2.47;;;16.60;99.00;;;;;;2075693;28;20823;-68
2023/08/01 03:00:26;;;;;;;3.63;2.30;;;16.60;98.50;;;;;;2078102;28;20286;-68
2023/08/01 03:01:27;;;;;;;5.17;1.90;;;16.60;99.00;;;;;;2073987;28;20228;-68
2023/08/01 03:02:28;;;;;;;4.57;2.60;;;16.60;99.10;;;;;;2069655;28;20507;-68
2023/08/01 03:03:29;;;;;;;4.23;2.30;;;16.60;98.90;;;;;;2077422;28;20271;-68
2023/08/01 03:04:30;;;;;;;5.47;2.67;;;16.60;99.10;;;;;;2097176;28;20537;-68
2023/08/01 03:05:31;;;;;;;5.47;2.43;;;16.60;99.30;;;;;;2091461;28;20236;-68
2023/08/01 03:06:32;;;;;;;4.50;2.27;;;16.60;98.60;;;;;;2087378;28;20252;-68
2023/08/01 03:07:33;;;;;;;3.37;2.27;;;16.60;98.20;;;;;;2086944;28;20634;-67
2023/08/01 03:08:34;;;;;;;5.47;2.60;;;16.70;98.40;;;;;;2091823;28;20460;-68
2023/08/01 03:09:35;;;;;;;4.30;2.33;;;16.70;98.60;;;;;;2093269;28;20839;-68
2023/08/01 03:10:35;;;;;;;5.30;2.60;;;16.70;98.50;;;;;;2093641;28;20236;-68
2023/08/01 03:11:37;;;;;;;4.73;2.40;;;16.70;98.30;;;;;;2093278;28;20219;-68
2023/08/01 03:12:37;;;;;;;3.00;2.13;;;16.60;98.30;;;;;;2079860;28;20228;-72
2023/08/01 03:13:38;;;;;;;5.17;2.70;;;16.70;98.10;;;;;;2084192;28;20480;-67
2023/08/01 03:14:41;;;;;;;4.20;2.20;;;16.70;97.70;;;;;;2072435;28;20232;-68
2023/08/01 03:15:42;;;;;;;4.60;2.43;;;16.70;97.80;;;;;;2070371;28;20237;-68
2023/08/01 03:16:42;;;;;;;4.03;2.43;;;16.70;97.60;;;;;;2069976;28;20459;-67
2023/08/01 03:17:43;;;;;;;5.10;2.10;;;16.70;97.40;;;;;;2078403;28;20224;-68
2023/08/01 03:18:44;;;;;;;2.80;2.43;;;16.70;97.50;;;;;;2079456;28;20299;-68
2023/08/01 03:19:44;;;;;;;3.87;2.27;;;16.70;97.50;;;;;;2062681;28;20233;-68
2023/08/01 03:20:45;;;;;;;7.97;2.37;;;16.70;97.60;;;;;;2062495;28;20309;-68
2023/08/01 03:21:46;;;;;;;3.40;2.10;;;16.70;97.50;;;;;;2069743;28;20719;-68
2023/08/01 03:22:47;;;;;;;4.00;2.17;;;16.70;97.60;;;;;;2060949;28;20232;-68
2023/08/01 03:23:47;;;;;;;4.77;2.53;;;16.80;97.60;;;;;;2067297;28;20482;-68
2023/08/01 03:24:48;;;;;;;5.20;2.53;;;16.70;97.50;;;;;;2075681;28;20256;-67
2023/08/01 03:25:49;;;;;;;2.93;2.20;;;16.70;97.70;;;;;;2067903;28;20225;-68
2023/08/01 03:26:50;;;;;;;3.80;2.00;;;16.60;98.20;;;;;;2077225;28;20260;-68
2023/08/01 03:27:50;;;;;;;4.33;2.53;;;16.60;98.30;;;;;;2078052;28;20680;-68
2023/08/01 03:28:51;;;;;;;7.13;2.80;;;16.50;98.40;;;;;;2085429;28;20224;-68
2023/08/01 03:29:52;;;;;;;3.90;2.50;;;16.50;98.90;;;;;;2067851;28;20236;-68
2023/08/01 03:30:54;;;;;;;9.50;2.47;;;16.40;98.90;;;;;;2077932;28;20263;-67
2023/08/01 03:31:54;;;;;;;3.23;2.23;;;16.30;99.90;;;;;;2078426;28;20247;-68
2023/08/01 03:32:55;;;;;;;6.50;2.67;;;16.20;99.90;;;;;;2084245;28;20468;-67
2023/08/01 03:33:58;;;;;;;5.43;2.83;;;16.20;99.90;;;;;;2076624;28;20626;-67
2023/08/01 03:34:58;;;;;;;4.57;2.57;;;16.10;99.90;;;;;;2067153;28;20300;-68
2023/08/01 03:35:59;;;;;;;6.30;2.50;;;16.00;99.90;;;;;;2069803;28;20427;-67
2023/08/01 03:37:00;;;;;;;4.33;2.67;;;16.00;99.90;;;;;;2070051;28;20723;-68
2023/08/01 03:38:01;;;;;;;5.67;2.67;;;15.90;99.90;;;;;;2069740;28;20213;-68
2023/08/01 03:39:03;;;;;;;4.10;2.40;;;15.80;99.90;;;;;;2077492;28;20235;-68
2023/08/01 03:40:05;;;;;;;4.37;2.50;;;15.70;99.90;;;;;;2078250;28;20184;-69
2023/08/01 03:41:06;;;;;;;3.33;2.60;;;15.50;99.90;;;;;;2082763;28;20425;-68
2023/08/01 03:42:07;;;;;;;6.20;2.67;;;15.50;99.90;;;;;;2083757;28;20968;-68
2023/08/01 03:43:09;;;;;;;6.17;2.77;;;15.40;99.90;;;;;;2083157;28;20185;-69
2023/08/01 03:44:10;;;;;;;4.43;3.10;;;15.30;99.90;;;;;;2076143;28;20868;-68
2023/08/01 03:45:11;;;;;;;5.97;2.60;;;15.30;99.90;;;;;;2065889;28;20435;-69
2023/08/01 03:46:11;;;;;;;4.63;2.53;;;15.20;99.90;;;;;;2078486;28;20200;-69
2023/08/01 03:47:12;;;;;;;5.83;2.70;;;15.20;99.90;;;;;;2091996;28;20334;-68
2023/08/01 03:48:13;;;;;;;5.13;2.53;;;15.10;99.90;;;;;;2079017;28;20201;-67
2023/08/01 03:49:14;;;;;;;6.83;2.80;;;15.20;99.90;;;;;;2086310;28;20180;-67
2023/08/01 03:50:14;;;;;;;7.20;2.93;;;15.10;99.90;;;;;;2085513;28;20199;-68
2023/08/01 03:51:17;;;;;;;4.57;2.67;;;15.10;99.90;;;;;;2075797;28;20568;-67
2023/08/01 03:52:19;;;;;;;5.60;2.73;;;15.00;99.90;;;;;;2065405;28;20716;-67
2023/08/01 03:53:19;;;;;;;6.00;2.80;;;15.00;99.90;;;;;;2076120;28;20477;-68
2023/08/01 03:54:20;;;;;;;4.93;2.70;;;14.90;99.90;;;;;;2069856;28;20490;-67
2023/08/01 03:55:21;;;;;;;5.07;3.40;;;14.90;99.90;;;;;;2070320;28;20660;-67
2023/08/01 03:56:21;;;;;;;4.67;2.60;;;15.00;99.90;;;;;;2083684;28;20224;-67
2023/08/01 03:57:22;;;;;;;5.60;2.97;;;15.00;99.90;;;;;;2086701;28;20232;-67
2023/08/01 03:58:23;;;;;;;5.90;3.07;;;15.10;99.90;;;;;;2083707;28;20325;-67
2023/08/01 03:59:24;;;;;;;6.50;2.97;;;15.10;99.90;;;;;;2065401;28;20248;-66
2023/08/01 04:00:24;;;;;;;7.37;3.50;;;15.00;99.90;;;;;;2068258;28;20606;-67
2023/08/01 04:01:25;;;;;;;4.93;3.30;;;15.00;99.90;;;;;;2066943;28;20225;-67
2023/08/01 04:02:26;;;;;;;5.23;2.60;;;15.00;99.90;;;;;;2073943;28;20220;-67
2023/08/01 04:03:27;;;;;;;8.57;3.50;;;15.10;99.90;;;;;;2085133;28;20301;-66
2023/08/01 04:04:28;;;;;;;3.83;2.67;;;15.10;99.90;;;;;;2085787;28;20228;-66
2023/08/01 04:05:29;;;;;;;5.70;3.37;;;15.10;99.90;;;;;;2079638;28;20853;-67
2023/08/01 04:06:29;;;;;;;7.63;2.83;;;15.10;99.90;;;;;;2077770;28;20270;-66
2023/08/01 04:07:30;;;;;;;4.90;2.63;;;15.00;99.90;;;;;;2080846;28;20292;-66
2023/08/01 04:08:31;;;;;;;5.13;3.13;;;15.00;99.90;;;;;;2083969;28;20595;-67
2023/08/01 04:09:31;;;;;;;4.60;2.60;;;15.00;99.90;;;;;;2083702;28;20314;-66
2023/08/01 04:10:32;;;;;;;4.77;2.77;;;15.10;99.90;;;;;;2084843;28;20633;-67
2023/08/01 04:11:33;;;;;;;5.57;2.87;;;15.00;99.90;;;;;;2078546;28;20311;-67
2023/08/01 04:12:34;;;;;;;4.63;3.07;;;15.00;99.90;;;;;;2077828;28;20227;-67
2023/08/01 04:13:35;;;;;;;5.63;3.07;;;15.00;99.90;;;;;;2084761;28;20854;-67
2023/08/01 04:14:36;;;;;;;5.13;3.00;;;14.90;99.90;;;;;;2085300;28;20480;-67
2023/08/01 04:15:37;;;;;;;5.67;2.97;;;15.00;99.90;;;;;;2081948;28;20239;-67
2023/08/01 04:16:37;;;;;;;7.53;3.00;;;15.00;99.90;;;;;;2082554;28;20267;-67
2023/08/01 04:17:38;;;;;;;5.40;3.17;;;15.00;99.90;;;;;;2081941;28;20290;-67
2023/08/01 04:18:39;;;;;;;4.97;3.03;;;15.00;99.90;;;;;;2083544;28;20224;-67
2023/08/01 04:19:40;;;;;;;5.43;3.23;;;15.10;99.90;;;;;;2078340;28;20303;-67
2023/08/01 04:20:40;;;;;;;5.70;3.10;;;15.10;99.90;;;;;;2067122;28;20315;-67
2023/08/01 04:21:41;;;;;;;5.37;3.60;;;15.10;99.90;;;;;;2070234;28;20569;-67
2023/08/01 04:22:42;;;;;;;4.57;2.97;;;15.10;99.90;;;;;;2069635;28;20264;-67
2023/08/01 04:23:43;;;;;;;5.70;3.27;;;15.10;99.90;;;;;;2076747;28;20234;-67
2023/08/01 04:24:45;;;;;;;6.60;3.20;;;15.20;99.90;;;;;;2076913;28;20271;-67
2023/08/01 04:25:45;;;;;;;4.23;2.83;;;15.20;99.90;;;;;;2068650;28;20493;-67
2023/08/01 04:26:46;;;;;;;4.93;2.80;;;15.20;99.90;;;;;;2069361;28;21008;-67
2023/08/01 04:27:47;;;;;;;5.53;2.80;;;15.20;99.90;;;;;;2077200;28;20236;-67
2023/08/01 04:28:47;;;;;;;4.30;2.70;;;15.30;99.90;;;;;;2078056;28;20244;-67
2023/08/01 04:29:49;;;;;;;7.03;3.13;;;15.20;99.90;;;;;;2084304;28;20261;-67
2023/08/01 04:30:50;;;;;;;5.40;3.03;;;15.20;99.90;;;;;;2085568;28;20501;-67
2023/08/01 04:31:51;;;;;;;6.30;3.60;;;15.20;99.90;;;;;;2083699;28;20252;-67
2023/08/01 04:32:52;;;;;;;4.33;3.50;;;15.10;99.90;;;;;;2069066;28;20470;-67
2023/08/01 04:33:52;;;;;;;6.77;3.10;;;15.10;99.90;;;;;;2069519;28;20672;-67
2023/08/01 04:34:53;;;;;;;5.90;2.90;;;15.10;99.90;;;;;;2053029;28;20238;-68
2023/08/01 04:35:54;;;;;;;6.60;3.70;;;15.10;99.90;;;;;;2067781;28;20256;-67
2023/08/01 04:36:55;;;;;;;9.60;3.47;;;15.10;99.90;;;;;;2085706;28;20234;-67
2023/08/01 04:37:56;;;;;;;4.70;3.13;;;15.10;99.90;;;;;;2077160;28;20551;-67
2023/08/01 04:38:56;;;;;;;5.50;3.10;;;15.10;99.90;;;;;;2076916;28;20232;-71
2023/08/01 04:39:57;;;;;;;4.67;2.60;;;15.00;99.90;;;;;;2077932;28;20260;-68
2023/08/01 04:40:58;;;;;;;5.40;3.07;;;14.90;99.90;;;;;;2078160;28;20227;-67
2023/08/01 04:41:59;;;;;;;7.23;3.10;;;15.00;99.90;;;;;;2077385;28;20189;-67
2023/08/01 04:43:02;;;;;;;4.57;2.77;;;15.00;99.90;;;;;;2076989;28;20440;-67
2023/08/01 04:44:04;;;;;;;6.37;2.80;;;15.00;99.90;;;;;;2081706;28;20458;-67
2023/08/01 04:45:06;;;;;;;4.17;2.90;;;14.90;99.90;;;;;;2071978;28;20427;-67
2023/08/01 04:46:07;;;;;;;5.17;3.00;;;14.90;99.90;;;;;;2077363;28;20445;-67
2023/08/01 04:47:08;;;;;;;6.80;3.73;;;14.90;99.90;;;;;;2075612;28;20433;-67
2023/08/01 04:48:09;;;;;;;6.53;3.23;;;14.80;99.90;;;;;;2069126;28;20459;-67
2023/08/01 04:49:10;;;;;;;3.83;2.93;;;14.80;99.90;;;;;;2080183;28;20395;-67
2023/08/01 04:50:10;;;;;;;4.50;2.90;;;14.80;99.90;;;;;;2081144;28;20188;-67
2023/08/01 04:51:11;;;;;;;6.63;2.77;;;14.70;99.90;;;;;;2071247;28;20228;-67
2023/08/01 04:52:12;;;;;;;5.33;3.40;;;14.70;99.90;;;;;;2079705;28;20272;-67
2023/08/01 04:53:12;;;;;;;5.33;3.50;;;14.70;99.90;;;;;;2079313;28;20196;-67
2023/08/01 04:54:13;;;;;;;4.63;3.10;;;14.70;99.90;;;;;;2060559;28;20682;-67
2023/08/01 04:55:14;;;;;;;7.60;3.67;;;14.70;99.90;;;;;;2054564;28;20453;-67
2023/08/01 04:56:15;;;;;;;4.23;2.83;;;14.60;99.90;;;;;;2058512;28;20242;-67
2023/08/01 04:57:15;;;;;;;5.37;3.63;;;14.60;99.90;;;;;;2062763;28;20256;-67
2023/08/01 04:58:16;;;;;;;5.93;3.10;;;14.50;99.90;;;;;;2070866;28;20397;-65
2023/08/01 04:59:17;;;;;;;4.63;3.37;;;14.50;99.90;;;;;;2078731;28;20236;-66
2023/08/01 05:00:18;;;;;;;5.83;3.70;;;14.50;99.90;;;;;;2070905;28;20716;-66
2023/08/01 05:01:18;;;;;;;3.87;2.97;;;14.50;99.90;;;;;;2071936;28;20730;-66
2023/08/01 05:02:19;;;;;;;6.20;3.10;;;14.50;99.90;;;;;;2073700;28;20229;-66
2023/08/01 05:03:20;;;;;;;4.37;3.10;;;14.50;99.90;;;;;;2078194;28;20646;-68
2023/08/01 05:04:20;;;;;;;6.20;3.87;;;14.40;99.90;;;;;;2076946;28;20232;-66
2023/08/01 05:05:21;;;;;;;5.40;3.20;;;14.40;99.90;;;;;;2077948;28;20233;-66
2023/08/01 05:06:22;;;;;;;5.90;3.25;;;14.40;99.90;;;;;;2079270;28;20606;-66
2023/08/01 05:07:23;;;;;;;6.33;3.50;;;14.40;99.90;;;;;;2083433;28;20235;-68
2023/08/01 05:08:24;;;;;;;4.90;3.23;;;14.30;99.90;;;;;;2087441;28;20619;-66
2023/08/01 05:09:24;;;;;;;7.50;3.23;;;14.30;99.90;;;;;;2084855;28;20722;-66
2023/08/01 05:10:25;;;;;;;4.57;3.50;;;14.30;99.90;;;;;;2078734;28;20224;-66
2023/08/01 05:11:26;;;;;;;4.73;2.97;;;14.30;99.90;;;;;;2075933;28;20648;-67
2023/08/01 05:12:26;;;;;;;6.97;3.97;;;14.30;99.90;;;;;;2076750;28;20233;-66
2023/08/01 05:13:28;;;;;;;4.97;3.37;;;14.30;99.90;;;;;;2082253;28;20228;-67
2023/08/01 05:14:28;;;;;;;5.53;3.58;;;14.20;99.90;;;;;;2085789;28;20240;-67
2023/08/01 05:15:29;;;;;;;6.90;3.90;;;14.20;99.90;;;;;;2081680;28;20300;-67
2023/08/01 05:16:30;;;;;;;5.67;3.77;;;14.30;99.90;;;;;;2078985;28;20233;-67
2023/08/01 05:17:30;;;;;;;6.20;3.90;;;14.30;99.90;;;;;;2083306;28;20232;-67
2023/08/01 05:18:31;;;;;;;7.73;3.90;;;14.20;99.90;;;;;;2070739;28;20620;-67